createdAt,value
2022-10-02T00:01:29.137Z,100404.00
2022-10-02T00:03:59.346Z,100411.00
2022-10-02T00:06:34.902Z,100426.00
2022-10-02T00:09:05.211Z,100426.00
2022-10-02T00:11:43.539Z,100436.00
2022-10-02T00:14:16.587Z,100426.00
2022-10-02T00:16:47.704Z,100428.00
2022-10-02T00:19:18.735Z,100412.00
2022-10-02T00:21:58.060Z,100419.00
2022-10-02T00:24:28.377Z,100423.00
2022-10-02T00:27:01.991Z,100419.00
2022-10-02T00:29:40.849Z,100426.00
2022-10-02T00:32:19.865Z,100425.00
2022-10-02T00:35:02.045Z,100420.00
2022-10-02T00:37:37.483Z,100425.00
2022-10-02T00:40:30.710Z,100439.00
2022-10-02T00:43:07.984Z,100441.00
2022-10-02T00:45:47.750Z,100434.00
2022-10-02T00:48:30.456Z,100443.00
2022-10-02T00:51:09.370Z,100440.00
2022-10-02T00:53:46.465Z,100438.00
2022-10-02T00:56:23.578Z,100434.00
2022-10-02T00:59:07.478Z,100434.00
2022-10-02T01:01:43.502Z,100439.00
2022-10-02T01:04:15.734Z,100439.00
2022-10-02T01:06:43.536Z,100452.00
2022-10-02T01:09:12.535Z,100444.00
2022-10-02T01:11:40.898Z,100457.00
2022-10-02T01:14:08.972Z,100454.00
2022-10-02T01:16:41.888Z,100457.00
2022-10-02T01:19:24.697Z,100454.00
2022-10-02T01:21:57.991Z,100447.00
2022-10-02T01:24:31.186Z,100452.00
2022-10-02T01:27:00.322Z,100454.00
2022-10-02T01:29:28.119Z,100448.00
2022-10-02T01:31:56.949Z,100458.00
2022-10-02T01:34:25.189Z,100458.00
2022-10-02T01:36:53.446Z,100459.00
2022-10-02T01:39:21.275Z,100452.00
2022-10-02T01:41:49.094Z,100456.00
2022-10-02T01:44:18.187Z,100455.00
2022-10-02T01:46:55.241Z,100461.00
2022-10-02T01:49:44.773Z,100458.00
2022-10-02T01:52:33.060Z,100468.00
2022-10-02T01:55:21.055Z,100454.00
2022-10-02T01:58:00.608Z,100456.00
2022-10-02T02:00:39.542Z,100465.00
2022-10-02T02:03:16.740Z,100461.00
2022-10-02T02:05:50.713Z,100456.00
2022-10-02T02:08:29.768Z,100467.00
2022-10-02T02:11:10.214Z,100467.00
2022-10-02T02:13:45.739Z,100464.00
2022-10-02T02:16:22.798Z,100463.00
2022-10-02T02:18:55.187Z,100465.00
2022-10-02T02:21:25.831Z,100460.00
2022-10-02T02:23:55.990Z,100464.00
2022-10-02T02:26:26.486Z,100457.00
2022-10-02T02:28:58.059Z,100454.00
2022-10-02T02:31:30.681Z,100450.00
2022-10-02T02:34:01.499Z,100452.00
2022-10-02T02:36:37.099Z,100446.00
2022-10-02T02:39:08.840Z,100459.00
2022-10-02T02:41:42.816Z,100454.00
2022-10-02T02:44:15.907Z,100469.00
2022-10-02T02:47:06.775Z,100452.00
2022-10-02T02:49:40.558Z,100465.00
2022-10-02T02:52:14.931Z,100452.00
2022-10-02T02:54:46.347Z,100465.00
2022-10-02T02:57:16.206Z,100475.00
2022-10-02T02:59:47.356Z,100447.00
2022-10-02T03:02:16.465Z,100475.00
2022-10-02T03:04:44.193Z,100475.00
2022-10-02T03:07:17.299Z,100471.00
2022-10-02T03:09:58.047Z,100484.00
2022-10-02T03:12:36.906Z,100477.00
2022-10-02T03:15:26.547Z,100483.00
2022-10-02T03:18:25.846Z,100473.00
2022-10-02T03:21:04.309Z,100476.00
2022-10-02T03:23:41.529Z,100477.00
2022-10-02T03:26:15.691Z,100479.00
2022-10-02T03:28:56.109Z,100475.00
2022-10-02T03:31:27.758Z,100488.00
2022-10-02T03:34:00.119Z,100479.00
2022-10-02T03:36:28.287Z,100479.00
2022-10-02T03:39:20.269Z,100479.00
2022-10-02T03:41:46.591Z,100482.00
2022-10-02T03:44:14.294Z,100489.00
2022-10-02T03:46:42.019Z,100487.00
2022-10-02T03:49:11.113Z,100484.00
2022-10-02T03:51:38.848Z,100485.00
2022-10-02T03:54:16.542Z,100493.00
2022-10-02T03:56:51.013Z,100484.00
2022-10-02T03:59:29.472Z,100477.00
2022-10-02T04:02:01.244Z,100477.00
2022-10-02T04:04:36.328Z,100471.00
2022-10-02T04:07:05.767Z,100460.00
2022-10-02T04:09:39.470Z,100468.00
2022-10-02T04:12:12.390Z,100465.00
2022-10-02T04:14:46.175Z,100475.00
2022-10-02T04:17:19.924Z,100476.00
2022-10-02T04:19:53.978Z,100476.00
2022-10-02T04:22:32.501Z,100479.00
2022-10-02T04:25:04.323Z,100489.00
2022-10-02T04:27:37.781Z,100499.00
2022-10-02T04:30:10.746Z,100499.00
2022-10-02T04:32:39.057Z,100492.00
2022-10-02T04:35:16.901Z,100494.00
2022-10-02T04:38:07.604Z,100492.00
2022-10-02T04:40:51.224Z,100508.00
2022-10-02T04:43:31.790Z,100509.00
2022-10-02T04:46:09.986Z,100521.00
2022-10-02T04:48:56.314Z,100519.00
2022-10-02T04:51:43.478Z,100505.00
2022-10-02T04:54:35.832Z,100518.00
2022-10-02T04:57:20.176Z,100516.00
2022-10-02T05:00:03.037Z,100511.00
2022-10-02T05:02:40.033Z,100516.00
2022-10-02T05:05:18.470Z,100517.00
2022-10-02T05:07:56.374Z,100524.00
2022-10-02T05:10:45.831Z,100533.00
2022-10-02T05:13:26.511Z,100539.00
2022-10-02T05:16:09.904Z,100534.00
2022-10-02T05:18:56.731Z,100512.00
2022-10-02T05:21:48.241Z,100512.00
2022-10-02T05:24:32.740Z,100534.00
2022-10-02T05:27:29.852Z,100520.00
2022-10-02T05:30:09.685Z,100532.00
2022-10-02T05:33:18.798Z,100524.00
2022-10-02T05:36:05.910Z,100528.00
2022-10-02T05:38:51.672Z,100524.00
2022-10-02T05:41:27.654Z,100526.00
2022-10-02T05:44:02.600Z,100542.00
2022-10-02T05:46:35.554Z,100531.00
2022-10-02T05:49:07.601Z,100539.00
2022-10-02T05:51:50.388Z,100545.00
2022-10-02T05:54:28.577Z,100544.00
2022-10-02T05:57:02.705Z,100543.00
2022-10-02T05:59:37.503Z,100539.00
2022-10-02T06:02:15.502Z,100549.00
2022-10-02T06:04:48.863Z,100546.00
2022-10-02T06:07:19.176Z,100540.00
2022-10-02T06:09:50.854Z,100555.00
2022-10-02T06:12:26.729Z,100544.00
2022-10-02T06:15:01.036Z,100537.00
2022-10-02T06:17:32.111Z,100545.00
2022-10-02T06:20:06.610Z,100535.00
2022-10-02T06:22:41.009Z,100539.00
2022-10-02T06:25:15.066Z,100541.00
2022-10-02T06:27:48.711Z,100542.00
2022-10-02T06:30:18.790Z,100541.00
2022-10-02T06:32:53.009Z,100540.00
2022-10-02T06:35:35.510Z,100547.00
2022-10-02T06:38:16.256Z,100556.00
2022-10-02T06:40:51.477Z,100547.00
2022-10-02T06:43:36.283Z,100550.00
2022-10-02T06:46:17.783Z,100546.00
2022-10-02T06:48:52.963Z,100551.00
2022-10-02T06:51:28.072Z,100552.00
2022-10-02T06:54:19.079Z,100567.00
2022-10-02T06:57:04.418Z,100566.00
2022-10-02T06:59:49.356Z,100563.00
2022-10-02T07:02:33.889Z,100565.00
2022-10-02T07:05:20.745Z,100555.00
2022-10-02T07:07:57.808Z,100548.00
2022-10-02T07:10:35.671Z,100556.00
2022-10-02T07:13:30.188Z,100565.00
2022-10-02T07:16:21.059Z,100552.00
2022-10-02T07:19:21.524Z,100558.00
2022-10-02T07:21:59.475Z,100561.00
2022-10-02T07:24:46.398Z,100555.00
2022-10-02T07:27:21.740Z,100562.00
2022-10-02T07:30:00.244Z,100571.00
2022-10-02T07:32:42.972Z,100572.00
2022-10-02T07:35:42.724Z,100572.00
2022-10-02T07:38:44.139Z,100576.00
2022-10-02T07:41:20.596Z,100583.00
2022-10-02T07:43:53.154Z,100592.00
2022-10-02T07:46:31.692Z,100593.00
2022-10-02T07:49:17.728Z,100601.00
2022-10-02T07:51:50.942Z,100603.00
2022-10-02T07:54:43.756Z,100606.00
2022-10-02T07:57:28.525Z,100601.00
2022-10-02T08:00:01.660Z,100622.00
2022-10-02T08:02:35.561Z,100611.00
2022-10-02T08:05:10.035Z,100612.00
2022-10-02T08:07:37.796Z,100614.00
2022-10-02T08:10:11.141Z,100625.00
2022-10-02T08:12:42.247Z,100620.00
2022-10-02T08:15:16.657Z,100626.00
2022-10-02T08:17:49.836Z,100627.00
2022-10-02T08:20:29.503Z,100630.00
2022-10-02T08:23:04.385Z,100624.00
2022-10-02T08:25:39.552Z,100628.00
2022-10-02T08:28:12.667Z,100633.00
2022-10-02T08:30:40.371Z,100631.00
2022-10-02T08:33:15.158Z,100632.00
2022-10-02T08:35:57.821Z,100632.00
2022-10-02T08:38:37.223Z,100638.00
2022-10-02T08:41:50.381Z,100642.00
2022-10-02T08:44:55.503Z,100646.00
2022-10-02T08:47:53.842Z,100650.00
2022-10-02T08:50:37.490Z,100633.00
2022-10-02T08:53:41.713Z,100645.00
2022-10-02T08:56:22.539Z,100646.00
2022-10-02T08:59:19.118Z,100652.00
2022-10-02T09:02:19.668Z,100661.00
2022-10-02T09:05:19.767Z,100661.00
2022-10-02T09:08:17.033Z,100645.00
2022-10-02T09:11:37.117Z,100653.00
2022-10-02T09:17:16.041Z,100654.00
2022-10-02T09:19:57.461Z,100644.00
2022-10-02T09:22:55.172Z,100640.00
2022-10-02T09:25:31.728Z,100646.00
2022-10-02T09:28:33.033Z,100643.00
2022-10-02T09:31:31.705Z,100655.00
2022-10-02T09:34:37.736Z,100653.00
2022-10-02T09:37:44.168Z,100658.00
2022-10-02T09:40:36.626Z,100656.00
2022-10-02T09:43:57.318Z,100652.00
2022-10-02T09:46:59.009Z,100656.00
2022-10-02T09:50:10.799Z,100651.00
2022-10-02T09:53:19.495Z,100649.00
2022-10-02T09:56:12.501Z,100662.00
2022-10-02T09:59:17.513Z,100662.00
2022-10-02T10:02:25.463Z,100655.00
2022-10-02T10:05:20.167Z,100667.00
2022-10-02T10:08:31.681Z,100646.00
2022-10-02T10:11:32.278Z,100654.00
2022-10-02T10:14:19.681Z,100649.00
2022-10-02T10:17:14.108Z,100650.00
2022-10-02T10:20:05.586Z,100657.00
2022-10-02T10:22:49.840Z,100665.00
2022-10-02T10:25:48.360Z,100665.00
2022-10-02T10:29:03.896Z,100665.00
2022-10-02T10:31:59.206Z,100668.00
2022-10-02T10:34:57.761Z,100678.00
2022-10-02T10:38:13.955Z,100683.00
2022-10-02T10:40:59.408Z,100679.00
2022-10-02T10:43:52.966Z,100677.00
2022-10-02T10:46:35.341Z,100669.00
2022-10-02T10:49:17.109Z,100684.00
2022-10-02T10:51:54.613Z,100674.00
2022-10-02T10:54:49.559Z,100674.00
2022-10-02T10:57:37.342Z,100695.00
2022-10-02T11:00:21.423Z,100669.00
2022-10-02T11:03:31.031Z,100670.00
2022-10-02T11:06:27.859Z,100655.00
2022-10-02T11:09:18.099Z,100666.00
2022-10-02T11:12:01.418Z,100662.00
2022-10-02T11:14:39.773Z,100650.00
2022-10-02T11:17:21.983Z,100659.00
2022-10-02T11:20:02.366Z,100661.00
2022-10-02T11:22:56.837Z,100664.00
2022-10-02T11:26:02.646Z,100671.00
2022-10-02T11:29:18.031Z,100672.00
2022-10-02T11:32:28.027Z,100673.00
2022-10-02T11:35:14.037Z,100682.00
2022-10-02T11:37:58.691Z,100693.00
2022-10-02T11:40:40.324Z,100687.00
2022-10-02T11:43:43.812Z,100702.00
2022-10-02T11:46:28.113Z,100704.00
2022-10-02T11:49:26.848Z,100710.00
2022-10-02T11:52:18.680Z,100707.00
2022-10-02T11:55:04.084Z,100713.00
2022-10-02T11:57:40.726Z,100717.00
2022-10-02T12:00:48.155Z,100718.00
2022-10-02T12:03:23.057Z,100713.00
2022-10-02T12:06:00.210Z,100715.00
2022-10-02T12:08:47.406Z,100718.00
2022-10-02T12:11:21.375Z,100722.00
2022-10-02T12:14:01.158Z,100729.00
2022-10-02T12:16:42.738Z,100733.00
2022-10-02T12:19:26.991Z,100731.00
2022-10-02T12:22:26.536Z,100732.00
2022-10-02T12:25:19.566Z,100735.00
2022-10-02T12:27:55.746Z,100736.00
2022-10-02T12:30:26.413Z,100730.00
2022-10-02T12:33:10.979Z,100727.00
2022-10-02T12:35:56.798Z,100720.00
2022-10-02T12:38:37.397Z,100727.00
2022-10-02T12:41:17.814Z,100722.00
2022-10-02T12:44:06.384Z,100730.00
2022-10-02T12:47:06.150Z,100718.00
2022-10-02T12:49:51.727Z,100723.00
2022-10-02T12:53:04.328Z,100733.00
2022-10-02T12:56:04.943Z,100729.00
2022-10-02T12:58:46.234Z,100730.00
2022-10-02T13:01:45.177Z,100734.00
2022-10-02T13:04:57.405Z,100737.00
2022-10-02T13:07:59.700Z,100734.00
2022-10-02T13:10:31.850Z,100736.00
2022-10-02T13:13:13.741Z,100736.00
2022-10-02T13:15:53.784Z,100733.00
2022-10-02T13:18:43.732Z,100735.00
2022-10-02T13:21:18.781Z,100734.00
2022-10-02T13:23:57.960Z,100743.00
2022-10-02T13:26:38.165Z,100751.00
2022-10-02T13:29:24.237Z,100739.00
2022-10-02T13:32:15.688Z,100747.00
2022-10-02T13:35:03.297Z,100736.00
2022-10-02T13:37:43.368Z,100747.00
2022-10-02T13:40:24.821Z,100755.00
2022-10-02T13:43:19.927Z,100761.00
2022-10-02T13:45:57.173Z,100761.00
2022-10-02T13:48:35.291Z,100759.00
2022-10-02T13:51:08.100Z,100752.00
2022-10-02T13:54:21.919Z,100756.00
2022-10-02T13:56:58.113Z,100765.00
2022-10-02T13:59:41.458Z,100751.00
2022-10-02T14:02:22.010Z,100755.00
2022-10-02T14:04:56.976Z,100753.00
2022-10-02T14:07:48.918Z,100750.00
2022-10-02T14:10:30.919Z,100752.00
2022-10-02T14:13:10.917Z,100748.00
2022-10-02T14:15:51.424Z,100747.00
2022-10-02T14:18:33.717Z,100761.00
2022-10-02T14:21:10.017Z,100745.00
2022-10-02T14:23:58.516Z,100745.00
2022-10-02T14:26:42.137Z,100755.00
2022-10-02T14:29:44.361Z,100763.00
2022-10-02T14:35:34.824Z,100755.00
2022-10-02T14:38:26.989Z,100751.00
2022-10-02T14:40:56.017Z,100749.00
2022-10-02T14:44:02.721Z,100759.00
2022-10-02T14:46:44.342Z,100751.00
2022-10-02T14:49:36.642Z,100757.00
2022-10-02T14:52:27.515Z,100752.00
2022-10-02T14:55:16.877Z,100783.00
2022-10-02T14:58:01.484Z,100825.00
2022-10-02T15:00:41.421Z,100844.00
2022-10-02T15:03:26.287Z,100844.00
2022-10-02T15:06:27.039Z,100834.00
2022-10-02T15:08:59.714Z,100834.00
2022-10-02T15:11:48.739Z,100829.00
2022-10-02T15:14:20.775Z,100833.00
2022-10-02T15:17:12.493Z,100835.00
2022-10-02T15:19:49.759Z,100844.00
2022-10-02T15:22:22.461Z,100837.00
2022-10-02T15:24:57.227Z,100838.00
2022-10-02T15:27:26.845Z,100836.00
2022-10-02T15:30:13.050Z,100835.00
2022-10-02T15:33:00.439Z,100836.00
2022-10-02T15:35:40.936Z,100847.00
2022-10-02T15:38:23.755Z,100833.00
2022-10-02T15:41:19.096Z,100852.00
2022-10-02T15:44:00.945Z,100853.00
2022-10-02T15:46:37.456Z,100866.00
2022-10-02T15:49:13.398Z,100849.00
2022-10-02T15:52:00.850Z,100851.00
2022-10-02T15:54:53.555Z,100867.00
2022-10-02T15:57:58.410Z,100866.00
2022-10-02T16:00:27.337Z,100871.00
2022-10-02T16:03:13.498Z,100871.00
2022-10-02T16:05:51.221Z,100882.00
2022-10-02T16:08:41.413Z,100882.00
2022-10-02T16:11:29.418Z,100879.00
2022-10-02T16:14:07.530Z,100886.00
2022-10-02T16:17:12.098Z,100887.00
2022-10-02T16:20:03.887Z,100897.00
2022-10-02T16:22:44.765Z,100889.00
2022-10-02T16:25:26.348Z,100905.00
2022-10-02T16:28:01.696Z,100900.00
2022-10-02T16:30:39.313Z,100906.00
2022-10-02T16:33:20.127Z,100910.00
2022-10-02T16:35:59.550Z,100923.00
2022-10-02T16:38:39.250Z,100915.00
2022-10-02T16:44:30.897Z,100927.00
2022-10-02T16:47:07.944Z,100935.00
2022-10-02T16:49:50.925Z,100939.00
2022-10-02T16:52:24.730Z,100946.00
2022-10-02T16:54:59.189Z,100949.00
2022-10-02T16:57:34.388Z,100946.00
2022-10-02T17:00:07.684Z,100949.00
2022-10-02T17:02:45.964Z,100950.00
2022-10-02T17:05:24.597Z,100956.00
2022-10-02T17:07:59.514Z,100955.00
2022-10-02T17:10:38.693Z,100955.00
2022-10-02T17:13:26.294Z,100953.00
2022-10-02T17:15:59.752Z,100961.00
2022-10-02T17:18:35.426Z,100969.00
2022-10-02T17:21:13.752Z,100970.00
2022-10-02T17:23:50.986Z,100979.00
2022-10-02T17:26:29.491Z,100983.00
2022-10-02T17:29:02.864Z,100988.00
2022-10-02T17:31:41.838Z,100997.00
2022-10-02T17:34:23.042Z,100998.00
2022-10-02T17:37:02.253Z,101000.00
2022-10-02T17:39:53.544Z,101013.00
2022-10-02T17:42:32.633Z,101009.00
2022-10-02T17:45:15.753Z,101017.00
2022-10-02T17:48:19.048Z,101025.00
2022-10-02T17:51:38.704Z,101021.00
2022-10-02T17:54:46.584Z,101032.00
2022-10-02T18:00:21.232Z,101040.00
2022-10-02T18:03:12.953Z,101049.00
2022-10-02T18:05:54.388Z,101056.00
2022-10-02T18:08:49.261Z,101059.00
2022-10-02T18:11:30.423Z,101070.00
2022-10-02T18:14:11.391Z,101061.00
2022-10-02T18:16:53.224Z,101067.00
2022-10-02T18:19:29.096Z,101076.00
2022-10-02T18:22:14.885Z,101068.00
2022-10-02T18:25:19.050Z,101080.00
2022-10-02T18:28:12.320Z,101083.00
2022-10-02T18:30:50.059Z,101092.00
2022-10-02T18:33:51.717Z,101091.00
2022-10-02T18:36:31.023Z,101095.00
2022-10-02T18:39:02.349Z,101092.00
2022-10-02T18:41:50.499Z,101095.00
2022-10-02T18:44:35.104Z,101103.00
2022-10-02T18:47:10.286Z,101110.00
2022-10-02T18:49:57.024Z,101103.00
2022-10-02T18:52:57.037Z,101116.00
2022-10-02T18:55:43.576Z,101124.00
2022-10-02T18:58:25.074Z,101124.00
2022-10-02T19:01:04.698Z,101126.00
2022-10-02T19:03:44.824Z,101124.00
2022-10-02T19:06:16.975Z,101127.00
2022-10-02T19:09:19.101Z,101134.00
2022-10-02T19:11:49.962Z,101135.00
2022-10-02T19:14:34.324Z,101131.00
2022-10-02T19:17:04.533Z,101133.00
2022-10-02T19:19:33.525Z,101139.00
2022-10-02T19:22:09.305Z,101147.00
2022-10-02T19:24:40.570Z,101142.00
2022-10-02T19:27:15.081Z,101152.00
2022-10-02T19:29:48.634Z,101162.00
2022-10-02T19:32:21.187Z,101158.00
2022-10-02T19:34:56.283Z,101161.00
2022-10-02T19:37:24.188Z,101161.00
2022-10-02T19:39:54.628Z,101165.00
2022-10-02T19:42:26.233Z,101166.00
2022-10-02T19:44:59.409Z,101166.00
2022-10-02T19:47:32.441Z,101166.00
2022-10-02T19:50:02.333Z,101170.00
2022-10-02T19:52:41.404Z,101181.00
2022-10-02T19:55:22.110Z,101187.00
2022-10-02T19:57:53.998Z,101188.00
2022-10-02T20:00:23.378Z,101186.00
2022-10-02T20:02:55.632Z,101191.00
2022-10-02T20:05:25.274Z,101196.00
2022-10-02T20:07:56.832Z,101187.00
2022-10-02T20:10:31.229Z,101197.00
2022-10-02T20:13:05.941Z,101208.00
2022-10-02T20:15:59.717Z,101207.00
2022-10-02T20:18:27.641Z,101200.00
2022-10-02T20:21:05.554Z,101204.00
2022-10-02T20:23:35.661Z,101211.00
2022-10-02T20:26:08.935Z,101200.00
2022-10-02T20:28:45.341Z,101206.00
2022-10-02T20:31:18.666Z,101215.00
2022-10-02T20:33:50.119Z,101218.00
2022-10-02T20:36:21.789Z,101223.00
2022-10-02T20:38:52.148Z,101237.00
2022-10-02T20:41:24.073Z,101220.00
2022-10-02T20:43:55.100Z,101236.00
2022-10-02T20:46:54.688Z,101231.00
2022-10-02T20:49:59.447Z,101230.00
2022-10-02T20:52:53.227Z,101243.00
2022-10-02T20:55:27.413Z,101242.00
2022-10-02T20:58:17.528Z,101245.00
2022-10-02T21:00:58.605Z,101239.00
2022-10-02T21:03:53.515Z,101250.00
2022-10-02T21:07:05.787Z,101247.00
2022-10-02T21:09:56.923Z,101257.00
2022-10-02T21:12:55.969Z,101252.00
2022-10-02T21:15:46.150Z,101261.00
2022-10-02T21:18:45.038Z,101260.00
2022-10-02T21:21:53.714Z,101258.00
2022-10-02T21:25:03.303Z,101267.00
2022-10-02T21:28:04.219Z,101268.00
2022-10-02T21:30:41.806Z,101269.00
2022-10-02T21:33:15.442Z,101274.00
2022-10-02T21:35:56.199Z,101283.00
2022-10-02T21:38:52.897Z,101280.00
2022-10-02T21:41:59.433Z,101292.00
2022-10-02T21:45:04.552Z,101289.00
2022-10-02T21:48:07.538Z,101291.00
2022-10-02T21:50:58.355Z,101288.00
2022-10-02T21:54:11.515Z,101304.00
2022-10-02T21:57:21.305Z,101299.00
2022-10-02T22:00:13.950Z,101305.00
2022-10-02T22:03:25.172Z,101316.00
2022-10-02T22:06:39.215Z,101307.00
2022-10-02T22:09:26.913Z,101312.00
2022-10-02T22:12:07.693Z,101311.00
2022-10-02T22:14:39.341Z,101313.00
2022-10-02T22:17:18.540Z,101311.00
2022-10-02T22:20:08.816Z,101320.00
2022-10-02T22:22:52.796Z,101322.00
2022-10-02T22:25:36.719Z,101321.00
2022-10-02T22:28:17.830Z,101323.00
2022-10-02T22:31:12.418Z,101331.00
2022-10-02T22:33:54.112Z,101331.00
2022-10-02T22:36:52.398Z,101327.00
2022-10-02T22:39:29.207Z,101330.00
2022-10-02T22:42:01.383Z,101331.00
2022-10-02T22:44:36.819Z,101331.00
2022-10-02T22:47:09.857Z,101331.00
2022-10-02T22:49:41.618Z,101343.00
2022-10-02T22:52:12.861Z,101343.00
2022-10-02T22:54:46.537Z,101350.00
2022-10-02T22:57:25.742Z,101349.00
2022-10-02T22:59:59.939Z,101348.00
2022-10-02T23:02:33.686Z,101342.00
2022-10-02T23:05:10.820Z,101350.00
2022-10-02T23:07:46.273Z,101345.00
2022-10-02T23:10:22.349Z,101343.00
2022-10-02T23:13:02.026Z,101356.00
2022-10-02T23:15:39.665Z,101356.00
2022-10-02T23:18:19.194Z,101357.00
2022-10-02T23:20:54.185Z,101352.00
2022-10-02T23:23:28.370Z,101342.00
2022-10-02T23:26:04.974Z,101349.00
2022-10-02T23:28:38.339Z,101333.00
2022-10-02T23:31:16.207Z,101364.00
2022-10-02T23:33:51.827Z,101377.00
2022-10-02T23:36:25.340Z,101365.00
2022-10-02T23:38:59.877Z,101368.00
2022-10-02T23:41:47.495Z,101375.00
2022-10-02T23:44:25.453Z,101372.00
2022-10-02T23:47:20.857Z,101379.00
2022-10-02T23:49:51.021Z,101379.00
2022-10-02T23:52:37.737Z,101382.00
2022-10-02T23:55:37.121Z,101392.00
2022-10-02T23:58:29.057Z,101385.00
